Time;durP1;ratioP1;P1;durP2;ratioP2;P2;SDS_P1;SDS_P2;PMS_P1;PMS_P2;Temp;Humidity;BMP_temperature;BMP_pressure;BME280_temperature;BME280_humidity;BME280_pressure;Samples;Min_cycle;Max_cycle;Signal;HPM_P1;HPM_P2
2021/06/14 00:00:13;;;;;;;2.20;1.13;;;;;;;26.84;23.75;94416.38;5096511;28;20044;-56
2021/06/14 00:02:43;;;;;;;1.83;1.20;;;;;;;27.77;23.01;94417.47;5110018;27;20056;-54
2021/06/14 00:05:39;;;;;;;2.65;1.00;;;;;;;27.38;23.03;94411.56;5095109;28;20044;-53
2021/06/14 00:08:07;;;;;;;3.80;0.90;;;;;;;27.85;22.56;94410.16;5096163;28;20048;-52
2021/06/14 00:10:35;;;;;;;1.40;0.80;;;;;;;27.83;22.82;94401.72;5098980;28;20047;-53
2021/06/14 00:13:04;;;;;;;3.42;1.10;;;;;;;27.72;22.53;94398.34;5116448;28;20039;-55
2021/06/14 00:15:33;;;;;;;2.50;1.10;;;;;;;27.80;22.22;94405.94;5116389;28;20055;-54
2021/06/14 00:18:00;;;;;;;2.70;1.33;;;;;;;27.92;22.43;94404.72;5116426;28;20043;-54
2021/06/14 00:20:28;;;;;;;2.40;0.98;;;;;;;28.15;22.02;94404.91;5118870;27;20039;-55
2021/06/14 00:22:55;;;;;;;1.90;1.00;;;;;;;28.28;21.85;94404.44;5116326;28;20066;-53
2021/06/14 00:25:25;;;;;;;1.92;1.10;;;;;;;28.11;21.95;94409.56;5116204;28;20048;-53
2021/06/14 00:27:53;;;;;;;3.45;1.20;;;;;;;27.43;22.83;94398.50;5115034;28;20039;-54
2021/06/14 00:30:26;;;;;;;5.43;1.10;;;;;;;28.22;21.57;94404.84;5115933;28;20143;-53
2021/06/14 00:32:53;;;;;;;5.07;1.15;;;;;;;27.81;22.51;94398.66;5095707;28;20047;-53
2021/06/14 00:35:20;;;;;;;3.35;1.10;;;;;;;27.87;22.61;94400.53;5095361;28;20051;-55
2021/06/14 00:37:47;;;;;;;3.78;1.00;;;;;;;27.76;22.46;94401.75;5095493;28;20044;-53
2021/06/14 00:40:15;;;;;;;3.95;1.20;;;;;;;27.58;22.72;94399.91;5095441;28;20556;-54
2021/06/14 00:42:44;;;;;;;4.10;1.23;;;;;;;27.82;22.77;94394.81;5115456;28;20047;-52
2021/06/14 00:45:15;;;;;;;2.00;1.15;;;;;;;27.87;22.92;94392.47;5115783;28;20039;-52
2021/06/14 00:47:44;;;;;;;2.83;1.05;;;;;;;27.64;23.37;94393.03;5114311;28;20055;-53
2021/06/14 00:50:15;;;;;;;2.15;1.30;;;;;;;27.67;23.04;94393.41;5115352;28;20489;-54
2021/06/14 00:52:43;;;;;;;5.70;1.20;;;;;;;27.91;23.00;94389.75;5115361;28;20043;-57
2021/06/14 00:55:13;;;;;;;4.65;1.00;;;;;;;27.62;23.37;94384.59;5115692;28;20051;-54
2021/06/14 00:57:40;;;;;;;3.13;1.10;;;;;;;27.85;22.70;94392.13;5115468;28;20062;-60
2021/06/14 01:00:08;;;;;;;2.28;1.17;;;;;;;27.39;23.54;94381.66;5115646;28;20051;-54
2021/06/14 01:02:43;;;;;;;3.45;1.20;;;;;;;27.75;23.23;94384.13;5113972;28;20054;-55
2021/06/14 01:05:14;;;;;;;6.38;1.20;;;;;;;27.40;24.00;94388.56;5115280;28;20358;-53
2021/06/14 01:07:42;;;;;;;3.15;1.05;;;;;;;27.62;23.24;94379.22;5097741;28;20058;-57
2021/06/14 01:10:11;;;;;;;2.95;1.13;;;;;;;27.41;23.39;94378.56;5114446;28;20046;-54
2021/06/14 01:13:10;;;;;;;2.47;1.50;;;;;;;27.34;23.87;94390.13;5113927;28;20043;-55
2021/06/14 01:16:09;;;;;;;5.88;1.63;;;;;;;28.04;22.45;94377.38;5080331;28;20770;-53
2021/06/14 01:19:34;;;;;;;1.77;1.25;;;;;;;27.82;23.31;94365.25;5109048;28;20062;-53
2021/06/14 01:22:35;;;;;;;6.63;1.45;;;;;;;27.58;23.21;94362.34;5051429;28;20056;-54
2021/06/14 01:25:08;;;;;;;2.72;1.30;;;;;;;27.72;23.24;94366.88;5052346;28;20057;-54
2021/06/14 01:27:56;;;;;;;3.33;1.40;;;;;;;27.63;23.58;94364.66;5088026;28;20058;-54
2021/06/14 01:30:33;;;;;;;6.57;1.20;;;;;;;27.54;23.79;94364.28;5114205;28;20050;-55
2021/06/14 01:33:10;;;;;;;3.67;1.20;;;;;;;27.50;23.96;94350.13;5097647;28;20043;-55
2021/06/14 01:35:41;;;;;;;5.25;1.60;;;;;;;27.61;23.37;94356.19;5113963;28;20047;-56
2021/06/14 01:38:10;;;;;;;2.72;1.17;;;;;;;27.16;24.43;94349.19;5097481;28;20068;-58
2021/06/14 01:40:38;;;;;;;5.38;1.60;;;;;;;27.91;23.44;94352.16;5108357;28;20044;-54
2021/06/14 01:43:10;;;;;;;3.60;1.23;;;;;;;27.47;23.80;94356.28;5093619;28;20047;-54
2021/06/14 01:45:44;;;;;;;2.67;1.15;;;;;;;26.75;24.82;94349.72;5094540;28;20051;-54
2021/06/14 01:48:12;;;;;;;2.63;1.50;;;;;;;27.36;24.50;94355.59;5076837;28;20055;-55
2021/06/14 01:50:42;;;;;;;3.90;1.30;;;;;;;27.46;24.23;94362.81;5103003;28;20057;-54
2021/06/14 01:53:09;;;;;;;3.90;1.20;;;;;;;26.98;25.07;94363.44;5098882;28;20048;-55
2021/06/14 01:55:38;;;;;;;2.75;1.25;;;;;;;27.17;24.35;94366.81;5093352;28;20051;-53
2021/06/14 01:58:07;;;;;;;3.25;1.20;;;;;;;26.95;24.55;94366.13;5114783;28;20059;-57
2021/06/14 02:00:41;;;;;;;1.85;1.20;;;;;;;26.88;24.75;94358.88;5118725;28;20043;-55
2021/06/14 02:03:39;;;;;;;2.58;1.30;;;;;;;27.11;24.57;94363.03;5087304;28;20039;-55
2021/06/14 02:06:29;;;;;;;3.10;1.20;;;;;;;27.10;24.41;94361.50;5090233;28;20044;-58
2021/06/14 02:08:58;;;;;;;2.83;1.13;;;;;;;27.50;24.25;94366.22;5098514;28;20040;-56
2021/06/14 02:11:28;;;;;;;4.00;1.40;;;;;;;27.08;24.70;94361.91;5103164;28;20051;-54
2021/06/14 02:13:58;;;;;;;3.10;1.30;;;;;;;27.46;24.44;94362.81;5117839;28;20074;-53
2021/06/14 02:16:27;;;;;;;3.17;1.20;;;;;;;27.39;24.28;94365.56;5108077;28;20055;-55
2021/06/14 02:18:56;;;;;;;2.88;1.45;;;;;;;27.38;24.77;94358.66;5097130;28;20044;-55
2021/06/14 02:21:23;;;;;;;4.22;1.10;;;;;;;27.24;24.43;94369.47;5117333;27;20054;-55
2021/06/14 02:23:50;;;;;;;3.33;1.40;;;;;;;27.42;24.20;94367.44;5117514;28;20051;-55
2021/06/14 02:26:18;;;;;;;3.20;1.20;;;;;;;27.11;24.65;94371.09;5118463;27;20054;-54
2021/06/14 02:28:46;;;;;;;4.00;1.40;;;;;;;27.20;24.79;94374.09;5116805;28;20051;-55
2021/06/14 02:31:13;;;;;;;4.22;1.40;;;;;;;27.45;24.47;94368.56;5110471;28;20378;-54
2021/06/14 02:33:41;;;;;;;2.42;1.30;;;;;;;26.87;25.19;94368.09;5117375;28;20039;-56
2021/06/14 02:36:13;;;;;;;3.30;1.33;;;;;;;27.09;25.19;94368.03;5117202;28;20361;-55
2021/06/14 02:38:40;;;;;;;2.47;1.10;;;;;;;27.17;25.16;94369.50;5118547;28;20048;-55
2021/06/14 02:41:09;;;;;;;2.08;1.40;;;;;;;27.09;25.01;94368.78;5100327;28;20055;-55
2021/06/14 02:43:37;;;;;;;3.45;1.60;;;;;;;27.48;24.34;94367.78;5117002;28;20050;-54
2021/06/14 02:46:07;;;;;;;3.00;1.40;;;;;;;26.82;25.39;94363.13;5118196;28;20047;-53
2021/06/14 02:48:38;;;;;;;3.50;1.40;;;;;;;24.66;28.98;94369.09;5115044;28;20431;-53
2021/06/14 02:51:06;;;;;;;4.10;1.48;;;;;;;26.03;26.54;94367.88;5118728;27;20043;-57
2021/06/14 02:53:36;;;;;;;3.63;1.48;;;;;;;25.96;26.92;94372.47;5117034;28;20040;-52
2021/06/14 02:56:13;;;;;;;6.38;1.60;;;;;;;26.68;25.85;94376.56;5116960;28;20047;-53
2021/06/14 02:58:46;;;;;;;6.03;1.70;;;;;;;26.33;26.51;94372.81;5118024;28;20461;-53
2021/06/14 03:01:15;;;;;;;4.22;1.90;;;;;;;26.63;25.82;94366.25;5116543;28;20059;-52
2021/06/14 03:03:44;;;;;;;3.38;1.60;;;;;;;26.55;26.20;94367.44;5116788;28;20121;-52
2021/06/14 03:06:16;;;;;;;5.38;1.80;;;;;;;26.62;25.76;94378.13;5117367;28;20040;-53
2021/06/14 03:08:47;;;;;;;2.70;1.50;;;;;;;26.49;26.10;94374.31;5102388;28;20044;-54
2021/06/14 03:11:14;;;;;;;3.72;1.42;;;;;;;26.76;25.78;94366.59;5109609;28;20047;-52
2021/06/14 03:13:44;;;;;;;5.82;1.33;;;;;;;26.35;26.45;94372.47;5116636;28;20047;-53
2021/06/14 03:16:14;;;;;;;3.85;1.50;;;;;;;26.52;26.00;94373.56;5116250;28;20047;-54
2021/06/14 03:18:46;;;;;;;4.15;1.48;;;;;;;26.30;26.10;94373.59;5116580;28;20043;-54
2021/06/14 03:21:18;;;;;;;5.43;1.58;;;;;;;27.00;25.37;94374.56;5128600;27;20488;-53
2021/06/14 03:23:48;;;;;;;3.03;1.50;;;;;;;26.33;26.27;94369.38;5136793;27;20058;-53
2021/06/14 03:26:16;;;;;;;2.72;1.48;;;;;;;26.23;26.17;94381.63;5134552;27;20046;-52
2021/06/14 03:28:44;;;;;;;3.60;1.60;;;;;;;26.76;25.71;94380.00;5117480;28;20047;-52
2021/06/14 03:31:13;;;;;;;3.47;1.60;;;;;;;26.30;26.13;94381.63;5117073;28;20036;-52
2021/06/14 03:33:42;;;;;;;3.03;1.40;;;;;;;26.94;25.24;94375.34;5117294;27;20051;-52
2021/06/14 03:36:11;;;;;;;2.88;1.40;;;;;;;26.78;25.77;94370.41;5116993;28;20078;-53
2021/06/14 03:38:40;;;;;;;3.55;1.60;;;;;;;26.52;26.13;94378.91;5116394;28;20051;-53
2021/06/14 03:41:08;;;;;;;4.85;1.60;;;;;;;26.58;25.93;94367.44;5116100;28;20043;-53
2021/06/14 03:43:35;;;;;;;4.75;1.70;;;;;;;26.89;25.65;94365.00;5117090;28;20447;-52
2021/06/14 03:46:02;;;;;;;3.88;1.30;;;;;;;26.41;26.03;94371.69;5116406;28;20055;-52
2021/06/14 03:48:29;;;;;;;2.03;1.50;;;;;;;26.77;25.73;94368.13;5116341;28;20370;-56
2021/06/14 03:50:57;;;;;;;2.53;1.40;;;;;;;26.56;25.60;94368.97;5126494;27;20354;-53
2021/06/14 03:53:30;;;;;;;2.78;1.50;;;;;;;26.59;25.68;94366.28;5101907;27;20052;-53
2021/06/14 03:56:06;;;;;;;3.25;1.48;;;;;;;26.92;25.30;94367.69;5096412;28;20044;-52
2021/06/14 03:58:33;;;;;;;5.10;1.70;;;;;;;26.91;25.30;94368.84;5116197;28;20051;-52
2021/06/14 04:01:01;;;;;;;3.63;1.63;;;;;;;26.62;25.43;94370.09;5116768;28;20043;-52
2021/06/14 04:03:28;;;;;;;3.92;1.35;;;;;;;26.91;25.18;94368.06;5115738;28;20472;-54
2021/06/14 04:05:57;;;;;;;4.05;1.50;;;;;;;26.81;24.87;94358.16;5116224;28;20055;-53
2021/06/14 04:08:29;;;;;;;3.58;1.48;;;;;;;26.41;25.39;94358.28;5114115;28;20047;-52
2021/06/14 04:10:56;;;;;;;3.20;1.58;;;;;;;26.94;24.74;94357.31;5116713;27;20036;-52
2021/06/14 04:13:24;;;;;;;2.53;1.10;;;;;;;27.19;24.47;94356.47;5116571;28;20058;-53
2021/06/14 04:15:51;;;;;;;3.17;1.20;;;;;;;26.93;24.96;94360.41;5115364;28;20051;-54
2021/06/14 04:18:18;;;;;;;2.22;1.40;;;;;;;26.21;26.24;94375.88;5115963;28;20051;-53
2021/06/14 04:20:46;;;;;;;2.53;1.45;;;;;;;26.73;25.67;94378.84;5123837;27;20058;-53
2021/06/14 04:23:13;;;;;;;3.85;1.33;;;;;;;27.99;23.66;94375.09;5136529;27;20055;-44
2021/06/14 04:25:40;;;;;;;3.47;1.40;;;;;;;27.23;24.38;94373.31;5124589;27;20043;-41
2021/06/14 04:28:08;;;;;;;3.60;1.20;;;;;;;27.30;24.32;94373.25;5110950;28;20050;-50
2021/06/14 04:30:36;;;;;;;3.60;1.48;;;;;;;27.52;24.73;94363.91;5109329;28;20047;-45
2021/06/14 04:33:04;;;;;;;1.95;1.25;;;;;;;27.84;24.02;94371.00;5095641;28;20392;-44
2021/06/14 04:35:32;;;;;;;2.03;1.05;;;;;;;27.97;23.73;94372.06;5095669;28;20055;-75
2021/06/14 04:37:59;;;;;;;2.72;1.00;;;;;;;28.74;22.60;94377.09;5109446;28;20056;-44
2021/06/14 04:40:26;;;;;;;3.88;1.13;;;;;;;28.20;23.33;94374.94;5115888;27;20055;-43
2021/06/14 04:42:54;;;;;;;2.08;1.23;;;;;;;28.96;22.07;94374.94;5115817;28;20051;-56
2021/06/14 04:45:23;;;;;;;4.32;1.20;;;;;;;27.94;23.07;94372.84;5115899;28;20047;-41
2021/06/14 04:47:50;;;;;;;2.30;1.10;;;;;;;28.08;23.27;94372.72;5115341;28;20048;-42
2021/06/14 04:50:17;;;;;;;2.42;1.40;;;;;;;28.04;23.22;94365.84;5120013;27;20039;-41
2021/06/14 04:52:44;;;;;;;1.50;1.00;;;;;;;28.39;23.09;94364.81;5136298;27;20054;-42
2021/06/14 04:55:12;;;;;;;3.80;1.30;;;;;;;28.25;23.11;94366.47;5136165;27;20054;-40
2021/06/14 04:57:39;;;;;;;3.28;1.17;;;;;;;28.67;22.72;94361.81;5124705;27;20047;-40
2021/06/14 05:00:08;;;;;;;6.65;2.13;;;;;;;27.92;25.03;94365.19;5115681;28;20058;-40
2021/06/14 05:02:36;;;;;;;7.57;2.75;;;;;;;28.18;25.24;94366.50;5101074;28;20048;-46
2021/06/14 05:05:04;;;;;;;4.38;1.92;;;;;;;28.97;23.67;94368.41;5094418;28;20055;-41
2021/06/14 05:07:31;;;;;;;4.32;1.52;;;;;;;28.90;23.87;94373.88;5104226;28;20055;-46
2021/06/14 05:09:59;;;;;;;2.95;1.42;;;;;;;28.85;23.24;94380.44;5115313;28;20369;-44
2021/06/14 05:12:26;;;;;;;2.58;1.33;;;;;;;29.61;22.33;94375.63;5115562;28;20044;-48
2021/06/14 05:14:53;;;;;;;4.03;1.30;;;;;;;29.68;21.92;94391.72;5115346;28;20070;-41
2021/06/14 05:17:20;;;;;;;1.95;1.20;;;;;;;29.24;22.42;94384.59;5115313;28;20046;-43
2021/06/14 05:19:47;;;;;;;3.72;1.35;;;;;;;29.62;22.17;94385.22;5114865;28;20454;-47
2021/06/14 05:22:14;;;;;;;2.13;1.20;;;;;;;29.05;22.45;94388.66;5132504;27;20043;-47
2021/06/14 05:24:42;;;;;;;3.92;1.40;;;;;;;29.03;22.49;94386.38;5135795;27;20058;-43
2021/06/14 05:27:09;;;;;;;2.78;1.10;;;;;;;29.06;22.54;94384.81;5129999;27;20040;-45
2021/06/14 05:29:37;;;;;;;2.70;1.30;;;;;;;29.11;22.52;94387.03;5114926;28;20074;-46
2021/06/14 05:32:05;;;;;;;2.85;1.48;;;;;;;30.14;21.06;94390.22;5115314;28;20044;-46
2021/06/14 05:34:32;;;;;;;3.40;1.20;;;;;;;28.76;22.12;94391.66;5097068;28;20051;-41
2021/06/14 05:36:59;;;;;;;5.75;1.52;;;;;;;28.93;22.48;94386.53;5114777;28;20047;-46
2021/06/14 05:39:26;;;;;;;3.78;1.30;;;;;;;29.24;22.13;94388.03;5114929;28;20070;-47
2021/06/14 05:41:54;;;;;;;3.22;1.17;;;;;;;29.81;21.67;94387.25;5115055;28;20055;-44
2021/06/14 05:44:21;;;;;;;3.30;1.30;;;;;;;28.99;22.86;94384.91;5115145;28;20039;-47
2021/06/14 05:46:48;;;;;;;3.13;0.98;;;;;;;30.17;21.18;94384.00;5113685;28;20043;-48
2021/06/14 05:49:15;;;;;;;2.55;1.27;;;;;;;30.00;21.20;94378.50;5103619;28;20044;-42
2021/06/14 05:51:42;;;;;;;2.17;1.10;;;;;;;29.76;21.60;94382.34;5126935;28;20047;-46
2021/06/14 05:54:11;;;;;;;1.80;1.20;;;;;;;29.90;21.38;94378.66;5135592;28;20051;-46
2021/06/14 05:56:38;;;;;;;2.72;1.30;;;;;;;30.19;21.31;94377.06;5135253;28;20047;-45
2021/06/14 05:59:05;;;;;;;3.65;1.17;;;;;;;30.36;20.75;94372.50;5113941;28;20047;-46
2021/06/14 06:01:32;;;;;;;4.70;1.40;;;;;;;31.39;20.12;94377.88;5114610;28;20054;-42
2021/06/14 06:04:00;;;;;;;2.40;1.30;;;;;;;30.39;20.50;94371.69;5114930;28;20488;-41
2021/06/14 06:06:27;;;;;;;3.55;1.20;;;;;;;29.81;21.97;94365.72;5114716;28;20051;-42
2021/06/14 06:08:54;;;;;;;1.80;1.08;;;;;;;30.07;21.15;94364.16;5114709;28;20051;-43
2021/06/14 06:11:21;;;;;;;2.15;0.93;;;;;;;29.67;21.22;94363.25;5114732;28;20050;-42
2021/06/14 06:13:48;;;;;;;1.88;1.08;;;;;;;29.75;21.14;94356.56;5114767;28;20055;-41
2021/06/14 06:16:15;;;;;;;2.63;1.30;;;;;;;29.90;21.06;94360.53;5114888;28;20369;-41
2021/06/14 06:18:43;;;;;;;3.92;1.17;;;;;;;30.47;20.75;94365.00;5114518;28;20076;-41
2021/06/14 06:21:10;;;;;;;1.95;1.50;;;;;;;30.56;20.39;94357.13;5122407;28;20066;-43
2021/06/14 06:23:37;;;;;;;2.25;1.02;;;;;;;30.94;19.96;94356.78;5135268;28;20054;-45
2021/06/14 06:26:06;;;;;;;2.78;1.52;;;;;;;30.09;20.79;94359.13;5134123;28;20050;-46
2021/06/14 06:28:34;;;;;;;3.78;1.25;;;;;;;30.31;20.54;94362.22;5119722;28;20361;-41
2021/06/14 06:31:01;;;;;;;3.63;1.30;;;;;;;30.50;19.93;94364.19;5114499;28;20055;-42
2021/06/14 06:33:28;;;;;;;1.77;1.05;;;;;;;31.56;19.04;94361.28;5114691;28;20055;-43
2021/06/14 06:35:55;;;;;;;2.10;1.27;;;;;;;31.10;18.94;94362.25;5114563;28;20082;-41
2021/06/14 06:38:22;;;;;;;2.90;0.95;;;;;;;28.93;21.93;94371.13;5114495;28;20074;-40
2021/06/14 06:40:50;;;;;;;4.18;1.20;;;;;;;26.29;24.35;94355.22;5098922;28;20047;-49
2021/06/14 06:43:17;;;;;;;2.78;1.35;;;;;;;25.24;26.09;94362.81;5094347;28;20052;-40
2021/06/14 06:45:44;;;;;;;4.10;1.42;;;;;;;24.63;27.44;94351.13;5096557;28;20055;-40
2021/06/14 06:48:12;;;;;;;4.10;1.10;;;;;;;25.87;25.67;94350.69;5109210;28;20039;-45
2021/06/14 06:50:39;;;;;;;4.75;1.58;;;;;;;24.49;27.81;94346.50;5124514;27;20042;-41
2021/06/14 06:53:07;;;;;;;2.28;1.58;;;;;;;25.36;26.97;94357.88;5118745;27;20074;-39
2021/06/14 06:55:34;;;;;;;4.95;1.40;;;;;;;25.11;26.90;94349.81;5118110;28;20047;-48
2021/06/14 06:58:03;;;;;;;3.60;1.58;;;;;;;29.31;20.79;94357.56;5108907;28;20051;-44
2021/06/14 07:00:31;;;;;;;4.10;1.17;;;;;;;29.73;19.62;94354.28;5105831;28;20059;-45
2021/06/14 07:02:58;;;;;;;2.13;1.00;;;;;;;29.90;19.69;94349.00;5117576;28;20047;-42
2021/06/14 07:05:25;;;;;;;4.20;1.35;;;;;;;31.02;18.77;94338.53;5107066;28;20052;-47
2021/06/14 07:07:53;;;;;;;3.00;0.90;;;;;;;31.56;18.10;94334.25;5105133;28;20180;-43
2021/06/14 07:10:20;;;;;;;3.10;1.00;;;;;;;32.11;17.37;94346.09;5104765;28;20047;-49
2021/06/14 07:12:47;;;;;;;2.35;0.98;;;;;;;31.88;17.40;94333.53;5106321;28;20054;-41
2021/06/14 07:15:14;;;;;;;1.50;1.10;;;;;;;32.28;17.47;94333.34;5097149;28;20339;-40
2021/06/14 07:17:44;;;;;;;1.83;0.95;;;;;;;32.05;17.64;94333.53;5102614;28;20074;-42
2021/06/14 07:20:13;;;;;;;2.00;1.00;;;;;;;32.37;17.23;94338.88;5120102;27;20050;-48
2021/06/14 07:22:41;;;;;;;11.40;1.40;;;;;;;33.24;15.72;94332.63;5118861;27;20047;-48
2021/06/14 07:25:09;;;;;;;3.22;1.20;;;;;;;32.32;16.16;94339.41;5117520;27;20059;-43
2021/06/14 07:27:37;;;;;;;3.35;1.00;;;;;;;32.66;16.80;94343.53;5117196;28;20047;-44
2021/06/14 07:30:07;;;;;;;1.50;1.00;;;;;;;32.50;16.62;94339.69;5117209;28;20450;-44
2021/06/14 07:32:34;;;;;;;3.83;1.30;;;;;;;32.81;16.04;94342.00;5117516;28;20048;-43
2021/06/14 07:35:02;;;;;;;3.22;1.08;;;;;;;32.68;15.85;94347.34;5117330;28;20044;-42
2021/06/14 07:37:29;;;;;;;2.15;1.15;;;;;;;32.58;15.79;94351.09;5117082;28;20362;-55
2021/06/14 07:39:57;;;;;;;2.15;0.98;;;;;;;32.37;16.47;94340.84;5117282;27;20066;-50
2021/06/14 07:42:24;;;;;;;3.38;1.30;;;;;;;32.31;16.48;94337.91;5117176;28;20044;-43
2021/06/14 07:44:52;;;;;;;1.98;1.20;;;;;;;32.02;15.96;94337.84;5117059;28;20043;-51
2021/06/14 07:47:19;;;;;;;1.48;0.90;;;;;;;31.66;16.42;94340.59;5116946;28;20044;-45
2021/06/14 07:49:46;;;;;;;1.95;1.15;;;;;;;32.00;16.12;94334.00;5103658;28;20060;-44
2021/06/14 07:52:13;;;;;;;3.83;1.30;;;;;;;31.80;16.57;94332.19;5116168;27;20047;-44
2021/06/14 07:54:40;;;;;;;2.33;1.40;;;;;;;32.51;15.79;94330.38;5116869;28;20043;-41
2021/06/14 07:57:08;;;;;;;3.35;1.23;;;;;;;32.46;15.66;94339.03;5116934;28;20453;-42
2021/06/14 07:59:35;;;;;;;1.48;0.95;;;;;;;31.98;16.16;94330.97;5116687;28;20047;-43
2021/06/14 08:02:03;;;;;;;3.22;1.13;;;;;;;32.18;16.24;94335.09;5116667;28;20059;-43
2021/06/14 08:04:30;;;;;;;1.38;1.02;;;;;;;31.88;16.32;94333.53;5116761;27;20050;-42
2021/06/14 08:06:57;;;;;;;4.30;1.30;;;;;;;31.87;16.19;94337.41;5116751;28;20476;-43
2021/06/14 08:09:30;;;;;;;7.30;1.52;;;;;;;31.90;16.40;94335.81;5116501;28;20044;-42
2021/06/14 08:11:58;;;;;;;4.82;1.40;;;;;;;32.14;15.99;94336.38;5115416;28;20054;-45
2021/06/14 08:14:25;;;;;;;5.60;1.20;;;;;;;31.63;16.77;94333.34;5116450;27;20442;-52
2021/06/14 08:16:53;;;;;;;1.95;1.20;;;;;;;31.54;16.89;94346.69;5116611;28;20487;-44
2021/06/14 08:27:21;;;;;;;4.10;1.70;;;;;;;31.03;17.84;94351.59;5116350;28;20046;-46
2021/06/14 08:29:50;;;;;;;2.85;1.60;;;;;;;31.15;17.86;94356.34;5115979;28;20043;-49
2021/06/14 08:32:18;;;;;;;2.08;1.33;;;;;;;30.95;18.72;94350.22;5115199;28;20358;-54
2021/06/14 08:34:45;;;;;;;3.63;1.27;;;;;;;31.07;18.41;94352.28;5115835;28;20361;-41
2021/06/14 08:37:13;;;;;;;4.07;1.40;;;;;;;31.08;18.34;94351.13;5116056;28;20058;-41
2021/06/14 08:39:40;;;;;;;4.05;1.30;;;;;;;30.61;19.22;94353.97;5116075;28;20043;-44
2021/06/14 08:42:07;;;;;;;3.63;1.30;;;;;;;30.71;18.97;94354.97;5115991;28;20055;-52
2021/06/14 08:44:35;;;;;;;3.70;1.55;;;;;;;30.95;18.89;94353.69;5115779;28;20051;-42
2021/06/14 08:47:03;;;;;;;4.00;1.20;;;;;;;30.61;19.26;94353.97;5116030;28;20047;-44
2021/06/14 08:49:31;;;;;;;2.33;1.45;;;;;;;30.82;19.39;94347.41;5114642;28;20050;-43
2021/06/14 08:51:59;;;;;;;4.60;1.55;;;;;;;30.46;19.84;94351.94;5123946;27;20050;-50
2021/06/14 08:54:27;;;;;;;3.92;1.38;;;;;;;30.98;19.21;94349.41;5115472;28;20043;-44
2021/06/14 08:56:54;;;;;;;3.42;1.60;;;;;;;30.91;19.34;94350.28;5115702;28;20070;-45
2021/06/14 08:59:22;;;;;;;2.65;1.20;;;;;;;31.50;18.57;94348.69;5115537;28;20051;-42
2021/06/14 09:01:49;;;;;;;2.60;1.38;;;;;;;31.82;18.80;94342.56;5115628;28;20043;-50
2021/06/14 09:04:18;;;;;;;3.70;1.65;;;;;;;32.09;18.19;94331.47;5113560;28;20044;-52
2021/06/14 09:06:46;;;;;;;2.10;1.13;;;;;;;31.87;18.07;94331.25;5115229;28;20492;-44
2021/06/14 09:09:13;;;;;;;2.78;1.55;;;;;;;31.09;19.18;94333.75;5115036;28;20051;-43
2021/06/14 09:11:50;;;;;;;2.78;1.55;;;;;;;32.02;18.35;94337.09;5115629;28;20047;-44
2021/06/14 09:14:26;;;;;;;5.30;1.40;;;;;;;31.78;18.98;94329.16;5115379;28;20039;-42
2021/06/14 09:17:06;;;;;;;2.08;1.20;;;;;;;31.55;18.72;94342.78;5115226;28;20054;-47
2021/06/14 09:19:40;;;;;;;3.38;1.60;;;;;;;31.49;19.11;94333.66;5115259;28;20086;-41
2021/06/14 09:22:16;;;;;;;4.40;1.40;;;;;;;31.37;19.88;94339.72;5116721;27;20040;-40
2021/06/14 09:25:00;;;;;;;4.93;1.27;;;;;;;30.63;21.50;94351.63;5115283;28;20043;-48
2021/06/14 09:27:42;;;;;;;5.65;1.63;;;;;;;30.56;22.30;94359.06;5115101;28;20047;-43
2021/06/14 09:30:13;;;;;;;3.58;1.90;;;;;;;29.11;24.30;94365.50;5100966;28;20048;-46
2021/06/14 09:33:07;;;;;;;20.92;2.05;;;;;;;26.31;28.86;94369.75;5094844;28;20355;-48
2021/06/14 09:35:36;;;;;;;6.07;1.65;;;;;;;24.72;33.05;94372.94;5111962;28;20051;-51
2021/06/14 09:38:14;;;;;;;6.68;2.05;;;;;;;23.81;35.13;94383.41;5100373;28;20060;-48
2021/06/14 09:40:52;;;;;;;11.15;2.33;;;;;;;23.96;35.29;94374.41;5095251;28;20463;-52
2021/06/14 09:43:27;;;;;;;13.05;2.28;;;;;;;23.97;36.33;94378.59;5101500;28;20067;-50
2021/06/14 09:45:57;;;;;;;5.88;1.88;;;;;;;23.01;36.60;94366.25;5113911;28;20046;-40
2021/06/14 09:48:26;;;;;;;5.30;2.08;;;;;;;22.71;36.76;94367.03;5094838;28;20369;-45
2021/06/14 09:50:56;;;;;;;8.93;2.13;;;;;;;22.88;36.52;94367.59;5108551;28;20059;-39
2021/06/14 09:53:35;;;;;;;2.95;2.00;;;;;;;22.51;37.44;94373.63;5114805;28;20450;-40
2021/06/14 09:56:26;;;;;;;5.18;2.33;;;;;;;22.42;37.67;94375.78;5108960;28;20047;-40
2021/06/14 09:58:55;;;;;;;3.53;1.88;;;;;;;22.82;36.37;94377.06;5106674;28;20347;-39
2021/06/14 10:01:33;;;;;;;4.95;1.90;;;;;;;23.57;35.03;94375.97;5114794;28;20043;-41
2021/06/14 10:04:11;;;;;;;3.72;2.05;;;;;;;22.78;35.96;94385.00;5114477;28;20303;-45
2021/06/14 10:06:44;;;;;;;6.22;2.10;;;;;;;22.19;37.29;94386.50;5114956;28;20047;-44
2021/06/14 10:09:13;;;;;;;7.28;2.40;;;;;;;22.52;37.06;94380.47;5114986;28;20054;-47
2021/06/14 10:11:43;;;;;;;3.78;1.98;;;;;;;22.54;36.77;94378.22;5114673;28;20044;-44
2021/06/14 10:14:15;;;;;;;5.70;2.65;;;;;;;22.19;37.77;94372.44;5114683;28;20047;-41
2021/06/14 10:16:43;;;;;;;;;;;;;;;22.46;37.48;94371.28;5103913;28;20051;-40
2021/06/14 10:19:12;;;;;;;3.55;2.35;;;;;;;22.69;36.89;94382.59;5094425;28;19923;-44
2021/06/14 10:21:45;;;;;;;7.53;3.40;;;;;;;21.36;40.49;94386.31;5117341;27;20373;-51
2021/06/14 10:24:17;;;;;;;6.03;2.40;;;;;;;21.29;40.20;94386.16;5118423;28;20046;-44
2021/06/14 10:26:46;;;;;;;4.18;2.25;;;;;;;22.13;38.65;94385.28;5118805;28;20051;-43
2021/06/14 10:29:15;;;;;;;5.88;3.25;;;;;;;21.64;39.60;94374.59;5118757;28;20039;-50
2021/06/14 10:31:45;;;;;;;56.90;45.28;;;;;;;22.51;38.42;94381.59;5118304;28;20046;-43
2021/06/14 10:34:13;;;;;;;28.50;22.60;;;;;;;22.59;39.42;94380.56;5118129;28;20047;-41
2021/06/14 10:36:51;;;;;;;27.85;22.48;;;;;;;21.46;44.20;94375.06;5118447;28;20082;-42
2021/06/14 10:39:21;;;;;;;23.02;13.30;;;;;;;21.97;41.60;94372.06;5118502;28;20047;-45
2021/06/14 10:41:49;;;;;;;10.48;6.78;;;;;;;22.50;39.93;94372.09;5116815;28;20051;-43
2021/06/14 10:44:16;;;;;;;7.88;4.82;;;;;;;22.27;38.56;94366.06;5117968;28;20047;-43
2021/06/14 10:46:45;;;;;;;5.88;4.00;;;;;;;22.91;37.22;94366.91;5118385;28;20043;-50
2021/06/14 10:49:14;;;;;;;5.50;3.95;;;;;;;22.78;37.34;94358.34;5118313;28;20050;-42
2021/06/14 10:51:41;;;;;;;5.38;2.78;;;;;;;22.13;38.41;94364.75;5127865;27;20043;-45
2021/06/14 10:54:11;;;;;;;4.70;2.40;;;;;;;25.36;32.39;94355.22;5117560;27;20051;-45
2021/06/14 10:56:39;;;;;;;5.93;2.63;;;;;;;27.00;30.36;94345.06;5097961;28;20047;-41
2021/06/14 10:59:10;;;;;;;4.47;2.10;;;;;;;27.49;29.95;94337.88;5111054;28;20054;-48
2021/06/14 11:01:39;;;;;;;5.13;1.75;;;;;;;28.83;27.31;94343.16;5103687;28;20059;-46
2021/06/14 11:04:24;;;;;;;2.33;1.67;;;;;;;28.54;27.37;94334.66;5101442;28;20047;-41
2021/06/14 11:06:53;;;;;;;4.10;1.80;;;;;;;25.79;32.13;94334.63;5117608;28;20059;-40
2021/06/14 11:09:20;;;;;;;3.35;1.83;;;;;;;25.27;33.68;94332.66;5097605;28;20047;-40
2021/06/14 11:11:55;;;;;;;5.18;2.00;;;;;;;23.24;36.50;94323.44;5102424;28;20040;-47
2021/06/14 11:14:42;;;;;;;3.15;1.83;;;;;;;23.02;39.18;94328.56;5099883;28;20040;-41
2021/06/14 11:17:21;;;;;;;4.15;1.58;;;;;;;23.33;38.12;94332.66;5097263;28;20054;-44
2021/06/14 11:19:58;;;;;;;4.50;1.67;;;;;;;22.71;41.36;94321.72;5097331;28;20438;-40
2021/06/14 11:22:42;;;;;;;4.47;2.08;;;;;;;23.86;36.08;94332.34;5123148;27;20048;-42
2021/06/14 11:25:21;;;;;;;4.93;1.73;;;;;;;25.81;32.80;94313.59;5103624;28;20044;-41
2021/06/14 11:27:49;;;;;;;5.97;2.08;;;;;;;27.52;27.96;94314.84;5112895;28;20052;-48
2021/06/14 11:30:18;;;;;;;2.45;1.50;;;;;;;28.52;26.64;94320.09;5114949;28;20046;-42
2021/06/14 11:32:45;;;;;;;3.58;1.45;;;;;;;29.33;25.30;94312.91;5112903;28;20039;-41
2021/06/14 11:35:13;;;;;;;5.03;1.95;;;;;;;29.50;25.30;94300.41;5109013;28;20442;-45
2021/06/14 11:37:42;;;;;;;3.55;1.45;;;;;;;28.91;25.46;94313.53;5112558;28;20401;-42
2021/06/14 11:40:13;;;;;;;3.53;1.60;;;;;;;29.76;24.74;94304.97;5097132;28;20039;-40
2021/06/14 11:42:49;;;;;;;7.43;3.92;;;;;;;29.24;25.31;94296.53;5115865;28;20044;-42
2021/06/14 11:45:35;;;;;;;17.00;14.98;;;;;;;29.31;24.51;94307.19;5108973;28;20743;-41
2021/06/14 11:48:05;;;;;;;17.73;13.70;;;;;;;29.68;25.15;94295.50;5117069;28;20361;-49
2021/06/14 11:50:34;;;;;;;7.72;6.93;;;;;;;28.98;25.47;94305.34;5119878;27;20381;-46
2021/06/14 11:53:03;;;;;;;6.50;5.90;;;;;;;29.83;24.32;94301.41;5124277;27;20377;-45
2021/06/14 11:55:33;;;;;;;8.52;4.45;;;;;;;29.87;25.25;94302.09;5116621;28;20051;-42